Time;durP1;ratioP1;P1;durP2;ratioP2;P2;SDS_P1;SDS_P2;PMS_P1;PMS_P2;Temp;Humidity;BMP_temperature;BMP_pressure;BME280_temperature;BME280_humidity;BME280_pressure;Samples;Min_cycle;Max_cycle;Signal;HPM_P1;HPM_P2
2021/07/06 00:01:12;;;;;;;9.75;2.75;;;18.00;87.30;;;;;;5018268;28;20025;-75
2021/07/06 00:03:38;;;;;;;6.50;2.40;;;18.00;87.40;;;;;;5014749;28;20041;-75
2021/07/06 00:06:04;;;;;;;6.45;3.13;;;18.00;87.20;;;;;;5010565;28;20480;-75
2021/07/06 00:08:29;;;;;;;6.80;2.80;;;18.00;87.30;;;;;;5020523;28;20481;-75
2021/07/06 00:10:55;;;;;;;6.63;2.72;;;18.00;87.10;;;;;;5019234;28;20042;-76
2021/07/06 00:13:21;;;;;;;6.32;2.33;;;17.90;87.20;;;;;;5015541;28;20045;-77
2021/07/06 00:15:49;;;;;;;5.80;2.40;;;18.00;87.00;;;;;;5014983;28;20033;-75
2021/07/06 00:18:15;;;;;;;5.82;2.25;;;18.00;86.90;;;;;;5012069;28;20117;-75
2021/07/06 00:20:41;;;;;;;7.57;2.60;;;17.90;86.90;;;;;;5010644;28;20160;-75
2021/07/06 00:23:10;;;;;;;6.38;2.78;;;18.00;86.90;;;;;;5020224;28;20064;-78
2021/07/06 00:25:35;;;;;;;5.18;2.53;;;18.00;87.00;;;;;;5009836;28;20037;-74
2021/07/06 00:28:01;;;;;;;5.70;2.35;;;17.90;87.00;;;;;;5008477;28;20030;-76
2021/07/06 00:30:27;;;;;;;4.18;2.30;;;18.00;86.90;;;;;;5009020;28;20397;-75
2021/07/06 00:32:53;;;;;;;4.90;2.08;;;17.90;86.70;;;;;;5016149;28;20113;-76
2021/07/06 00:35:19;;;;;;;4.43;2.42;;;17.90;87.00;;;;;;5016898;28;20496;-78
2021/07/06 00:37:46;;;;;;;4.38;2.47;;;17.90;87.00;;;;;;5015670;28;20444;-76
2021/07/06 00:40:12;;;;;;;9.80;2.50;;;18.00;87.00;;;;;;5021881;28;20045;-75
2021/07/06 00:42:42;;;;;;;5.90;2.20;;;18.00;87.10;;;;;;5018921;28;20025;-75
2021/07/06 00:45:10;;;;;;;4.30;2.28;;;17.90;87.10;;;;;;5021590;28;20483;-76
2021/07/06 00:47:40;;;;;;;8.30;2.30;;;18.00;86.70;;;;;;5015896;28;20025;-77
2021/07/06 00:50:09;;;;;;;7.85;2.38;;;18.00;86.50;;;;;;5024972;28;20127;-75
2021/07/06 00:52:36;;;;;;;6.40;2.20;;;18.00;86.40;;;;;;5025771;28;20068;-75
2021/07/06 00:55:03;;;;;;;5.13;2.20;;;18.10;86.20;;;;;;5025085;28;20491;-76
2021/07/06 00:57:29;;;;;;;4.20;1.95;;;18.10;86.40;;;;;;5017017;28;20025;-75
2021/07/06 00:59:57;;;;;;;4.95;2.00;;;18.10;86.30;;;;;;5016139;28;20033;-75
2021/07/06 01:02:22;;;;;;;3.53;1.90;;;18.10;86.50;;;;;;5018793;28;20543;-75
2021/07/06 01:04:48;;;;;;;3.75;2.08;;;18.10;86.50;;;;;;5014808;28;20377;-75
2021/07/06 01:07:14;;;;;;;6.57;2.10;;;18.20;86.30;;;;;;5017043;28;20102;-74
2021/07/06 01:09:39;;;;;;;4.68;1.92;;;18.20;86.20;;;;;;5016241;28;20046;-75
2021/07/06 01:12:05;;;;;;;10.07;2.35;;;18.20;86.30;;;;;;5026372;28;20042;-76
2021/07/06 01:14:31;;;;;;;3.60;1.90;;;18.20;86.10;;;;;;5018653;28;20038;-76
2021/07/06 01:16:57;;;;;;;7.72;2.30;;;18.10;86.30;;;;;;5027920;28;20493;-75
2021/07/06 01:19:26;;;;;;;3.83;2.00;;;18.10;86.30;;;;;;5021101;28;20038;-75
2021/07/06 01:21:52;;;;;;;4.90;2.38;;;18.10;86.40;;;;;;5026685;28;20469;-75
2021/07/06 01:24:18;;;;;;;6.25;2.38;;;18.10;86.40;;;;;;5033561;28;20041;-74
2021/07/06 01:26:43;;;;;;;5.35;2.70;;;18.10;86.40;;;;;;5022464;28;20049;-74
2021/07/06 01:29:09;;;;;;;5.32;2.60;;;18.10;86.60;;;;;;5022158;28;20041;-77
2021/07/06 01:31:35;;;;;;;7.68;2.22;;;18.10;86.60;;;;;;5023587;28;20096;-75
2021/07/06 01:34:00;;;;;;;7.38;2.42;;;18.10;86.40;;;;;;5014515;28;20054;-76
2021/07/06 01:36:26;;;;;;;4.75;2.00;;;18.10;86.50;;;;;;5014778;28;20026;-74
2021/07/06 01:38:52;;;;;;;7.22;2.33;;;18.20;86.50;;;;;;5016052;28;20385;-74
2021/07/06 01:41:17;;;;;;;4.28;1.90;;;18.20;86.30;;;;;;5014224;28;20049;-75
2021/07/06 01:43:46;;;;;;;6.43;2.17;;;18.20;86.30;;;;;;5023736;28;20080;-76
2021/07/06 01:46:11;;;;;;;6.07;2.00;;;18.30;86.30;;;;;;5023707;28;20046;-75
2021/07/06 01:48:37;;;;;;;4.75;1.63;;;18.30;86.30;;;;;;5019191;28;20041;-76
2021/07/06 01:51:03;;;;;;;4.90;1.83;;;18.30;86.00;;;;;;5018409;28;20603;-76
2021/07/06 01:53:29;;;;;;;3.25;1.63;;;18.30;85.70;;;;;;5014247;28;20096;-76
2021/07/06 01:55:55;;;;;;;4.93;2.40;;;18.40;85.80;;;;;;5021837;28;20041;-75
2021/07/06 01:58:23;;;;;;;3.95;1.73;;;18.40;85.80;;;;;;5024052;28;20087;-76
2021/07/06 02:00:57;;;;;;;6.20;2.65;;;18.40;85.70;;;;;;5015003;28;20137;-75
2021/07/06 02:03:23;;;;;;;7.15;2.03;;;18.40;85.50;;;;;;5012716;28;20042;-75
2021/07/06 02:05:53;;;;;;;5.13;2.00;;;18.50;85.60;;;;;;5018970;28;20084;-77
2021/07/06 02:08:20;;;;;;;3.72;1.80;;;18.50;85.40;;;;;;5041217;28;20064;-77
2021/07/06 02:10:48;;;;;;;5.97;1.92;;;18.50;85.50;;;;;;5030799;28;20033;-74
2021/07/06 02:13:25;;;;;;;3.38;1.83;;;18.50;85.60;;;;;;5013306;28;20040;-74
2021/07/06 02:15:54;;;;;;;4.80;2.03;;;18.50;85.50;;;;;;5017353;28;20116;-75
2021/07/06 02:18:22;;;;;;;5.25;1.90;;;18.60;85.60;;;;;;5019088;28;20041;-75
2021/07/06 02:20:49;;;;;;;5.43;1.75;;;18.60;85.60;;;;;;5023834;28;20346;-75
2021/07/06 02:23:15;;;;;;;4.03;1.60;;;18.50;85.50;;;;;;5024937;28;20111;-74
2021/07/06 02:25:42;;;;;;;3.72;1.85;;;18.50;85.60;;;;;;5010173;28;20034;-75
2021/07/06 02:28:11;;;;;;;6.07;2.40;;;18.60;85.60;;;;;;5019580;28;20072;-75
2021/07/06 02:30:37;;;;;;;4.63;2.08;;;18.60;85.70;;;;;;5023441;28;20046;-74
2021/07/06 02:33:03;;;;;;;5.10;2.17;;;18.60;85.70;;;;;;5016914;28;20037;-76
2021/07/06 02:35:32;;;;;;;5.55;2.20;;;18.60;85.70;;;;;;5029429;28;20473;-75
2021/07/06 02:37:59;;;;;;;6.18;2.38;;;18.60;85.40;;;;;;5022851;28;20046;-76
2021/07/06 02:40:25;;;;;;;5.07;2.38;;;18.60;85.40;;;;;;5012317;28;20093;-75
2021/07/06 02:42:51;;;;;;;5.20;2.38;;;18.70;85.50;;;;;;5031413;28;20042;-76
2021/07/06 02:45:18;;;;;;;5.22;2.35;;;18.60;85.40;;;;;;5019236;28;20060;-75
2021/07/06 02:47:44;;;;;;;5.05;2.60;;;18.60;85.60;;;;;;5031659;28;20029;-75
2021/07/06 02:50:11;;;;;;;6.30;2.05;;;18.60;85.70;;;;;;5020127;28;20042;-74
2021/07/06 02:52:37;;;;;;;5.43;2.08;;;18.60;85.60;;;;;;5010433;28;20041;-75
2021/07/06 02:55:05;;;;;;;6.90;2.45;;;18.70;85.70;;;;;;5020685;28;20042;-75
2021/07/06 02:57:35;;;;;;;7.80;2.45;;;18.60;85.60;;;;;;5011440;28;20038;-75
2021/07/06 03:00:14;;;;;;;6.45;2.50;;;18.60;85.70;;;;;;5010426;28;20038;-74
2021/07/06 03:02:42;;;;;;;6.60;2.10;;;18.60;85.80;;;;;;5027406;28;20040;-75
2021/07/06 03:05:09;;;;;;;5.82;2.50;;;18.60;85.70;;;;;;5014499;28;20033;-75
2021/07/06 03:07:36;;;;;;;7.47;2.60;;;18.60;85.80;;;;;;5015027;28;20029;-76
2021/07/06 03:10:07;;;;;;;12.77;2.83;;;18.60;85.80;;;;;;5012544;28;20073;-75
2021/07/06 03:12:32;;;;;;;8.65;2.60;;;18.60;86.00;;;;;;5010394;28;20029;-75
2021/07/06 03:14:58;;;;;;;8.55;2.80;;;18.60;86.10;;;;;;5015535;28;20449;-74
2021/07/06 03:17:24;;;;;;;8.15;2.50;;;18.60;86.10;;;;;;5014736;28;20300;-76
2021/07/06 03:19:49;;;;;;;7.43;2.60;;;18.60;86.20;;;;;;5017682;28;20128;-75
2021/07/06 03:22:15;;;;;;;7.32;2.30;;;18.50;86.30;;;;;;5019302;28;20112;-74
2021/07/06 03:24:41;;;;;;;5.60;2.40;;;18.50;86.40;;;;;;5024113;28;20432;-76
2021/07/06 03:27:06;;;;;;;7.20;2.50;;;18.50;86.50;;;;;;5011791;28;20388;-75
2021/07/06 03:29:32;;;;;;;6.53;2.25;;;18.50;86.60;;;;;;5024167;28;20092;-75
2021/07/06 03:31:58;;;;;;;11.05;2.60;;;18.50;86.70;;;;;;5013624;28;20042;-74
2021/07/06 03:34:26;;;;;;;6.18;2.33;;;18.60;86.60;;;;;;5010618;28;20374;-75
2021/07/06 03:36:52;;;;;;;5.70;2.42;;;18.50;86.70;;;;;;5012975;28;20034;-75
2021/07/06 03:39:18;;;;;;;4.85;1.80;;;18.60;86.10;;;;;;5026149;28;20096;-74
2021/07/06 03:41:44;;;;;;;6.90;2.15;;;18.50;85.60;;;;;;5021541;28;20334;-75
2021/07/06 03:44:09;;;;;;;4.15;2.13;;;18.60;85.00;;;;;;5017111;28;20362;-77
2021/07/06 03:46:35;;;;;;;4.18;1.70;;;18.60;84.10;;;;;;5021316;28;20120;-76
2021/07/06 03:49:01;;;;;;;6.05;2.17;;;18.60;84.10;;;;;;5018034;28;20030;-75
2021/07/06 03:51:27;;;;;;;4.85;2.13;;;18.60;84.00;;;;;;5010355;28;20038;-76
2021/07/06 03:53:53;;;;;;;11.07;1.80;;;18.60;84.10;;;;;;5009490;28;20370;-75
2021/07/06 03:56:18;;;;;;;6.05;2.03;;;18.60;84.30;;;;;;5008697;28;20116;-74
2021/07/06 03:58:44;;;;;;;5.72;2.08;;;18.50;84.50;;;;;;5010802;28;20469;-75
2021/07/06 04:01:10;;;;;;;5.82;2.00;;;18.60;84.60;;;;;;5015943;28;20508;-74
2021/07/06 04:03:35;;;;;;;6.15;2.28;;;18.50;84.70;;;;;;5010806;28;20030;-77
2021/07/06 04:06:01;;;;;;;5.43;2.15;;;18.50;84.40;;;;;;5008158;28;20038;-75
2021/07/06 04:08:27;;;;;;;6.82;1.90;;;18.50;84.40;;;;;;5009978;28;20390;-75
2021/07/06 04:10:52;;;;;;;6.00;2.30;;;18.50;84.50;;;;;;5010794;28;20038;-77
2021/07/06 04:13:18;;;;;;;6.97;2.40;;;18.50;84.40;;;;;;5008515;28;20030;-74
2021/07/06 04:15:44;;;;;;;5.07;2.10;;;18.50;84.30;;;;;;5016021;28;20051;-74
2021/07/06 04:18:09;;;;;;;6.43;2.20;;;18.50;84.20;;;;;;5010902;28;20030;-74
2021/07/06 04:20:35;;;;;;;5.80;2.08;;;18.50;84.00;;;;;;5016129;28;20033;-75
2021/07/06 04:23:01;;;;;;;6.90;2.20;;;18.50;83.70;;;;;;5024584;28;20085;-74
2021/07/06 04:25:27;;;;;;;5.50;1.85;;;18.50;83.40;;;;;;5023467;28;20041;-74
2021/07/06 04:27:52;;;;;;;4.07;1.95;;;18.40;83.10;;;;;;5015638;28;20108;-74
2021/07/06 04:30:19;;;;;;;4.03;1.83;;;18.50;81.70;;;;;;5028825;28;20419;-74
2021/07/06 04:32:48;;;;;;;5.20;2.10;;;18.40;80.90;;;;;;5014077;28;20117;-74
2021/07/06 04:35:15;;;;;;;5.30;2.13;;;18.50;81.10;;;;;;5008271;28;20508;-75
2021/07/06 04:37:41;;;;;;;6.78;2.13;;;18.50;80.90;;;;;;5013807;28;20145;-75
2021/07/06 04:40:07;;;;;;;5.47;2.10;;;18.50;81.40;;;;;;5009654;28;20100;-76
2021/07/06 04:42:36;;;;;;;5.65;2.20;;;18.50;81.90;;;;;;5010016;28;20496;-77
2021/07/06 04:45:02;;;;;;;6.53;2.08;;;18.60;82.50;;;;;;5008447;28;20084;-75
2021/07/06 04:47:28;;;;;;;7.72;2.15;;;18.60;82.70;;;;;;5009907;28;20026;-75
2021/07/06 04:49:54;;;;;;;5.60;2.15;;;18.50;82.90;;;;;;5010403;28;20046;-75
2021/07/06 04:52:22;;;;;;;9.93;1.90;;;18.60;82.90;;;;;;5010899;28;20030;-75
2021/07/06 04:54:48;;;;;;;7.18;1.95;;;18.50;82.10;;;;;;5016847;28;20073;-75
2021/07/06 04:57:14;;;;;;;4.25;2.03;;;18.40;81.90;;;;;;5009085;28;20069;-75
2021/07/06 04:59:39;;;;;;;5.68;1.70;;;18.50;81.40;;;;;;5011238;28;20108;-74
2021/07/06 05:02:05;;;;;;;7.95;2.40;;;18.40;80.80;;;;;;5009503;28;20038;-74
2021/07/06 05:04:32;;;;;;;6.18;1.40;;;18.40;79.50;;;;;;5012588;28;20484;-75
2021/07/06 05:06:58;;;;;;;7.88;1.63;;;18.20;76.70;;;;;;5014430;28;20056;-77
2021/07/06 05:09:23;;;;;;;6.03;1.77;;;18.30;76.00;;;;;;5017492;28;20397;-75
2021/07/06 05:11:49;;;;;;;4.80;1.45;;;18.20;76.30;;;;;;5009597;28;20037;-75
2021/07/06 05:14:15;;;;;;;3.60;1.70;;;18.20;76.30;;;;;;5009082;28;20085;-79
2021/07/06 05:16:40;;;;;;;5.65;1.90;;;18.20;76.40;;;;;;5011111;28;20038;-79
2021/07/06 05:19:06;;;;;;;4.43;1.42;;;18.20;77.00;;;;;;5008424;28;20038;-77
2021/07/06 05:21:32;;;;;;;4.57;1.50;;;18.30;77.20;;;;;;5028607;28;20037;-77
2021/07/06 05:23:57;;;;;;;4.30;1.52;;;18.30;77.40;;;;;;5029609;28;20033;-75
2021/07/06 05:26:25;;;;;;;6.45;1.60;;;18.30;77.60;;;;;;5024356;28;20034;-75
2021/07/06 05:28:52;;;;;;;8.10;1.55;;;18.40;77.40;;;;;;5021537;28;20038;-75
2021/07/06 05:31:18;;;;;;;3.53;1.48;;;18.90;76.50;;;;;;5014731;28;20046;-74
2021/07/06 05:33:44;;;;;;;6.03;1.67;;;19.60;73.50;;;;;;5020922;28;20034;-80
2021/07/06 05:36:09;;;;;;;3.70;1.42;;;19.80;72.90;;;;;;5028072;28;20541;-75
2021/07/06 05:38:35;;;;;;;7.47;2.00;;;20.00;71.90;;;;;;5013714;28;20117;-75
2021/07/06 05:41:02;;;;;;;5.43;1.67;;;20.40;70.90;;;;;;5012012;28;20440;-74
2021/07/06 05:43:28;;;;;;;4.10;1.10;;;20.60;69.10;;;;;;5033145;28;20143;-73
2021/07/06 05:45:54;;;;;;;8.85;1.40;;;19.90;69.40;;;;;;5013483;28;20132;-73
2021/07/06 05:48:20;;;;;;;5.20;1.50;;;19.40;69.50;;;;;;5014867;28;20036;-74
2021/07/06 05:50:46;;;;;;;5.45;1.55;;;19.40;69.70;;;;;;5024334;28;20034;-72
2021/07/06 05:53:12;;;;;;;5.25;1.30;;;19.20;69.70;;;;;;5024285;28;20029;-72
2021/07/06 05:55:42;;;;;;;4.80;1.30;;;19.30;69.70;;;;;;5022581;28;20091;-72
2021/07/06 05:58:08;;;;;;;6.03;1.42;;;19.70;67.60;;;;;;5010749;28;20042;-75
2021/07/06 06:00:34;;;;;;;5.05;1.77;;;19.90;66.80;;;;;;5015072;28;20496;-73
2021/07/06 06:03:00;;;;;;;7.15;1.63;;;19.90;66.50;;;;;;5016140;28;20034;-73
2021/07/06 06:05:26;;;;;;;6.35;1.67;;;19.60;67.50;;;;;;5011083;28;20064;-72
2021/07/06 06:07:52;;;;;;;5.70;1.55;;;19.60;68.00;;;;;;5012416;28;20544;-73
2021/07/06 06:10:18;;;;;;;7.63;1.88;;;19.60;68.40;;;;;;5012199;28;20042;-72
2021/07/06 06:12:44;;;;;;;9.40;1.60;;;19.60;68.30;;;;;;5010811;28;20050;-72
2021/07/06 06:15:10;;;;;;;5.32;1.90;;;19.50;69.00;;;;;;5024890;28;20084;-72
2021/07/06 06:17:36;;;;;;;5.65;1.48;;;19.40;69.20;;;;;;5014389;28;20053;-72
2021/07/06 06:20:07;;;;;;;7.85;1.88;;;19.40;69.40;;;;;;5020322;28;20061;-73
2021/07/06 06:22:33;;;;;;;6.32;1.52;;;19.50;69.70;;;;;;5032651;28;20053;-75
2021/07/06 06:25:00;;;;;;;7.78;1.58;;;19.50;69.60;;;;;;5042403;28;20091;-73
2021/07/06 06:27:26;;;;;;;6.43;2.05;;;19.50;69.10;;;;;;5046908;28;20044;-74
2021/07/06 06:29:52;;;;;;;8.00;2.45;;;19.60;67.70;;;;;;5026188;28;20042;-72
2021/07/06 06:32:17;;;;;;;8.48;1.98;;;19.70;68.00;;;;;;5028278;28;20041;-73
2021/07/06 06:34:44;;;;;;;9.45;1.73;;;19.80;65.50;;;;;;5023161;28;20038;-73
2021/07/06 06:37:10;;;;;;;11.65;2.50;;;19.90;65.30;;;;;;5037454;28;20041;-72
2021/07/06 06:39:36;;;;;;;8.57;2.03;;;19.90;65.20;;;;;;5027377;28;20054;-75
2021/07/06 06:42:03;;;;;;;8.95;1.98;;;20.00;64.30;;;;;;5024407;28;20038;-73
2021/07/06 06:44:28;;;;;;;9.00;1.85;;;19.90;64.00;;;;;;5031838;28;20026;-76
2021/07/06 06:46:54;;;;;;;7.57;1.60;;;20.00;62.80;;;;;;5038102;28;20412;-73
2021/07/06 06:49:20;;;;;;;6.68;1.63;;;19.90;63.40;;;;;;5039731;28;20093;-73
2021/07/06 06:51:46;;;;;;;6.40;1.55;;;20.10;64.10;;;;;;5032760;28;20045;-72
2021/07/06 06:54:11;;;;;;;9.35;1.90;;;20.30;62.40;;;;;;5038452;28;20033;-73
2021/07/06 06:56:40;;;;;;;7.15;1.65;;;20.20;61.20;;;;;;5024652;28;20065;-76
2021/07/06 06:59:07;;;;;;;8.80;1.77;;;20.10;61.60;;;;;;5025533;28;20052;-73
2021/07/06 07:01:33;;;;;;;9.70;2.00;;;20.10;60.50;;;;;;5033559;28;20042;-74
2021/07/06 07:03:59;;;;;;;9.95;2.03;;;20.30;59.70;;;;;;5024568;28;20129;-73
2021/07/06 07:06:25;;;;;;;8.30;2.17;;;20.20;59.00;;;;;;5035429;28;20461;-75
2021/07/06 07:08:50;;;;;;;9.00;1.80;;;20.30;57.80;;;;;;5033661;28;20038;-73
2021/07/06 07:11:16;;;;;;;9.98;1.98;;;20.50;57.50;;;;;;5022771;28;20075;-73
2021/07/06 07:13:42;;;;;;;10.10;2.08;;;20.50;57.30;;;;;;5022339;28;20084;-72
2021/07/06 07:16:10;;;;;;;10.05;2.38;;;20.60;56.90;;;;;;5028800;28;20033;-73
2021/07/06 07:18:35;;;;;;;10.77;1.88;;;20.50;57.60;;;;;;5022532;28;20536;-72
2021/07/06 07:21:01;;;;;;;9.13;2.15;;;20.50;57.20;;;;;;5021967;28;20053;-73
2021/07/06 07:23:27;;;;;;;10.40;1.85;;;20.70;57.20;;;;;;5034945;28;20038;-75
2021/07/06 07:25:52;;;;;;;7.60;1.58;;;20.70;55.90;;;;;;5023319;28;20042;-73
2021/07/06 07:28:19;;;;;;;10.05;1.88;;;20.90;56.10;;;;;;5036677;28;20413;-73
2021/07/06 07:30:45;;;;;;;8.95;1.92;;;21.00;55.60;;;;;;5024365;28;20049;-74
2021/07/06 07:33:10;;;;;;;11.20;2.00;;;21.10;55.60;;;;;;5023742;28;20030;-74
2021/07/06 07:35:36;;;;;;;9.07;1.73;;;20.90;55.70;;;;;;5024402;28;20029;-74
2021/07/06 07:38:02;;;;;;;11.30;1.88;;;20.80;56.10;;;;;;5024972;28;20053;-74
2021/07/06 07:40:30;;;;;;;9.27;1.73;;;20.90;56.20;;;;;;5023827;28;20113;-73
2021/07/06 07:42:57;;;;;;;9.27;1.65;;;20.60;57.00;;;;;;5022975;28;20053;-76
2021/07/06 07:45:25;;;;;;;10.13;2.05;;;20.40;58.00;;;;;;5025872;28;20034;-72
2021/07/06 07:47:51;;;;;;;11.05;1.92;;;20.40;58.20;;;;;;5026912;28;20545;-75
2021/07/06 07:50:16;;;;;;;9.25;1.80;;;20.40;58.30;;;;;;5023994;28;20087;-73
2021/07/06 07:52:42;;;;;;;10.68;1.92;;;20.30;58.90;;;;;;5027919;28;20037;-74
2021/07/06 07:55:08;;;;;;;8.40;1.45;;;20.40;57.90;;;;;;5024609;28;20037;-73
2021/07/06 07:57:34;;;;;;;11.32;2.35;;;20.50;58.30;;;;;;5028325;28;20035;-73
2021/07/06 08:00:00;;;;;;;10.07;1.70;;;20.40;58.00;;;;;;5025776;28;20081;-73
2021/07/06 08:02:25;;;;;;;9.40;1.75;;;20.10;58.70;;;;;;5038575;28;21106;-73
2021/07/06 08:04:52;;;;;;;10.27;2.28;;;20.30;58.60;;;;;;5022781;28;20037;-74
2021/07/06 08:07:20;;;;;;;8.05;1.70;;;20.50;58.30;;;;;;5025349;28;20045;-72
2021/07/06 08:09:46;;;;;;;9.13;2.00;;;20.70;58.20;;;;;;5042512;28;20064;-72
2021/07/06 08:12:12;;;;;;;9.93;2.13;;;21.10;56.90;;;;;;5029874;28;20038;-74
2021/07/06 08:14:38;;;;;;;6.75;1.67;;;20.90;57.60;;;;;;5025537;28;20033;-73
2021/07/06 08:17:04;;;;;;;10.27;1.85;;;21.20;56.80;;;;;;5033312;28;20037;-73
2021/07/06 08:19:30;;;;;;;9.90;2.10;;;21.40;57.30;;;;;;5037080;28;20046;-73
2021/07/06 08:21:57;;;;;;;7.22;1.92;;;21.60;55.70;;;;;;5022395;28;20042;-74
2021/07/06 08:24:22;;;;;;;9.35;2.58;;;21.40;55.90;;;;;;5028338;28;20040;-77
2021/07/06 08:26:48;;;;;;;7.90;2.03;;;21.10;56.50;;;;;;5022652;28;20065;-73
2021/07/06 08:29:16;;;;;;;8.52;2.03;;;21.00;56.50;;;;;;5024888;28;20029;-75
2021/07/06 08:31:41;;;;;;;16.35;2.70;;;21.50;55.30;;;;;;5023242;28;20049;-74
2021/07/06 08:34:07;;;;;;;8.95;1.95;;;21.60;55.40;;;;;;5022252;28;20034;-74
2021/07/06 08:36:33;;;;;;;11.98;1.92;;;21.50;54.70;;;;;;5027159;28;20033;-73
2021/07/06 08:38:58;;;;;;;15.15;2.30;;;21.40;54.70;;;;;;5029067;28;20038;-74
2021/07/06 08:41:24;;;;;;;7.65;1.80;;;21.20;55.70;;;;;;5038042;28;20041;-73
2021/07/06 08:43:50;;;;;;;8.07;2.50;;;21.30;55.30;;;;;;5023112;28;20030;-73
2021/07/06 08:46:21;;;;;;;11.73;2.13;;;21.50;55.70;;;;;;5022658;28;20034;-73
2021/07/06 08:48:48;;;;;;;10.50;2.20;;;21.40;55.20;;;;;;5025599;28;20541;-74
2021/07/06 08:51:18;;;;;;;11.80;2.70;;;21.00;55.20;;;;;;5036161;28;20045;-73
2021/07/06 08:53:44;;;;;;;11.55;2.20;;;20.90;56.60;;;;;;5041932;28;20044;-72
2021/07/06 08:56:10;;;;;;;10.75;2.30;;;21.00;56.30;;;;;;5026128;28;20038;-74
2021/07/06 08:58:36;;;;;;;12.63;2.05;;;21.10;56.20;;;;;;5033398;28;20034;-73
2021/07/06 09:01:02;;;;;;;9.13;1.90;;;21.60;55.50;;;;;;5032058;28;20040;-76
2021/07/06 09:03:57;;;;;;;10.55;2.33;;;21.60;54.60;;;;;;5027134;28;20049;-73
2021/07/06 09:06:25;;;;;;;8.95;1.80;;;21.30;54.90;;;;;;5049067;28;20117;-73
2021/07/06 09:08:52;;;;;;;9.68;2.22;;;21.30;56.00;;;;;;5025374;28;20034;-74
2021/07/06 09:11:21;;;;;;;12.57;2.13;;;21.20;55.30;;;;;;5025585;28;20104;-75
2021/07/06 09:13:48;;;;;;;10.98;1.92;;;21.30;55.50;;;;;;5025128;28;20105;-73
2021/07/06 09:16:27;;;;;;;9.15;1.80;;;21.50;56.40;;;;;;5026118;28;20051;-73
2021/07/06 09:18:54;;;;;;;9.45;1.83;;;21.20;56.20;;;;;;5025101;28;20397;-75
2021/07/06 09:21:22;;;;;;;7.97;1.85;;;20.80;56.70;;;;;;5031061;28;20092;-73
2021/07/06 09:23:54;;;;;;;13.20;1.92;;;20.60;57.50;;;;;;5036708;28;20068;-73
2021/07/06 09:26:30;;;;;;;9.10;1.70;;;20.60;58.30;;;;;;5025428;28;20038;-72
2021/07/06 09:28:57;;;;;;;8.68;1.98;;;20.70;58.20;;;;;;5031439;28;20030;-74
2021/07/06 09:31:25;;;;;;;9.05;2.05;;;20.50;58.00;;;;;;5027664;28;20050;-76
2021/07/06 09:34:06;;;;;;;11.75;2.47;;;20.40;58.20;;;;;;5026337;28;20049;-73
2021/07/06 09:36:51;;;;;;;13.27;2.08;;;20.20;58.80;;;;;;5032926;28;20048;-72
2021/07/06 09:39:20;;;;;;;10.45;2.17;;;20.00;59.80;;;;;;5025728;28;20108;-73
2021/07/06 09:42:11;;;;;;;13.90;2.70;;;20.00;59.20;;;;;;5026213;28;20049;-73
2021/07/06 09:44:41;;;;;;;11.23;2.22;;;20.00;59.70;;;;;;5025656;28;20389;-72
2021/07/06 09:47:12;;;;;;;11.93;2.25;;;19.90;60.10;;;;;;5031722;28;20389;-72
2021/07/06 09:49:39;;;;;;;9.05;2.20;;;19.90;60.20;;;;;;5035739;28;20034;-73
2021/07/06 09:52:13;;;;;;;15.65;2.72;;;19.60;60.40;;;;;;5023894;28;20038;-72
2021/07/06 09:54:44;;;;;;;13.68;2.70;;;19.70;61.00;;;;;;5041271;28;20052;-72
2021/07/06 09:57:36;;;;;;;9.88;1.90;;;19.90;60.00;;;;;;5025036;28;20034;-76
2021/07/06 10:00:04;;;;;;;14.50;2.60;;;19.80;60.00;;;;;;5026095;28;20063;-74
2021/07/06 10:02:31;;;;;;;9.38;2.33;;;19.90;60.50;;;;;;5032930;28;20089;-73
2021/07/06 10:04:59;;;;;;;10.18;2.25;;;20.10;60.30;;;;;;5034997;28;20127;-73
2021/07/06 10:07:26;;;;;;;10.30;1.90;;;19.80;59.60;;;;;;5038959;28;20116;-73
2021/07/06 10:09:53;;;;;;;10.48;2.38;;;19.90;60.20;;;;;;5040649;28;20041;-73
2021/07/06 10:12:20;;;;;;;9.70;2.22;;;19.70;60.60;;;;;;5024666;28;20045;-72
2021/07/06 10:14:46;;;;;;;10.52;2.00;;;19.80;60.60;;;;;;5032560;28;20087;-72
2021/07/06 10:17:13;;;;;;;9.60;1.70;;;19.80;60.70;;;;;;5025502;28;20042;-72
2021/07/06 10:19:40;;;;;;;9.48;2.10;;;19.80;61.20;;;;;;5026221;28;20034;-73
2021/07/06 10:22:07;;;;;;;8.50;1.80;;;19.80;61.20;;;;;;5022922;28;20149;-72
2021/07/06 10:24:38;;;;;;;8.43;2.20;;;20.00;60.80;;;;;;5040073;28;20026;-71
2021/07/06 10:27:07;;;;;;;15.90;2.50;;;20.00;60.50;;;;;;5029327;28;20081;-73
2021/07/06 10:29:35;;;;;;;10.73;1.88;;;20.10;60.30;;;;;;5033451;28;20060;-73
2021/07/06 10:32:01;;;;;;;13.00;2.13;;;20.40;59.80;;;;;;5028005;28;20041;-72
2021/07/06 10:34:28;;;;;;;15.10;2.40;;;20.60;59.00;;;;;;5023498;28;20048;-73
2021/07/06 10:36:59;;;;;;;9.20;1.98;;;20.90;58.20;;;;;;5014250;28;20033;-72
2021/07/06 10:39:45;;;;;;;7.15;2.00;;;21.10;57.70;;;;;;5012748;28;20474;-73
2021/07/06 10:42:11;;;;;;;6.93;1.45;;;21.10;57.60;;;;;;5011390;28;20075;-73
2021/07/06 10:44:41;;;;;;;7.55;1.75;;;21.30;57.40;;;;;;5010597;28;20080;-73
2021/07/06 10:47:33;;;;;;;14.70;2.05;;;21.10;56.90;;;;;;5016604;28;20037;-73
2021/07/06 10:50:19;;;;;;;11.73;2.22;;;21.20;57.70;;;;;;5018618;28;20046;-72
2021/07/06 10:52:45;;;;;;;6.78;1.45;;;21.10;57.00;;;;;;5011401;28;20052;-72
2021/07/06 10:55:33;;;;;;;9.63;1.95;;;20.80;58.40;;;;;;5011029;28;20030;-74
2021/07/06 10:57:59;;;;;;;7.78;1.70;;;20.60;58.70;;;;;;5010992;28;20038;-73
2021/07/06 11:00:44;;;;;;;7.80;1.40;;;20.30;58.50;;;;;;5012731;28;20064;-76
2021/07/06 11:03:18;;;;;;;7.53;1.55;;;20.40;59.50;;;;;;5009466;28;20121;-73
2021/07/06 11:05:44;;;;;;;7.95;1.42;;;20.10;61.30;;;;;;5024967;28;20041;-73
2021/07/06 11:08:41;;;;;;;8.40;1.77;;;20.00;62.50;;;;;;5010875;28;20044;-72
2021/07/06 11:11:08;;;;;;;7.53;1.73;;;20.00;65.20;;;;;;5035440;28;20057;-73
2021/07/06 11:13:34;;;;;;;9.38;2.47;;;19.80;67.30;;;;;;5009601;28;20034;-74
2021/07/06 11:16:02;;;;;;;8.70;2.10;;;19.80;68.20;;;;;;5016501;28;20026;-76
2021/07/06 11:18:38;;;;;;;9.73;2.33;;;19.50;69.90;;;;;;5035467;28;20065;-72
2021/07/06 11:21:24;;;;;;;7.22;1.80;;;19.60;72.60;;;;;;5011203;28;20053;-72
2021/07/06 11:24:10;;;;;;;5.50;1.83;;;19.80;71.50;;;;;;5020912;28;20029;-71
2021/07/06 11:26:44;;;;;;;7.55;2.17;;;20.10;69.60;;;;;;5010636;28;20038;-72
2021/07/06 11:29:11;;;;;;;9.18;1.98;;;20.30;66.80;;;;;;5025656;28;20038;-72
2021/07/06 11:31:37;;;;;;;8.65;2.33;;;20.50;66.70;;;;;;5018193;28;20041;-72
2021/07/06 11:34:04;;;;;;;8.75;1.67;;;20.60;65.20;;;;;;5016324;28;20451;-73
2021/07/06 11:36:32;;;;;;;8.90;2.00;;;20.40;65.80;;;;;;5021214;28;20037;-72
2021/07/06 11:39:00;;;;;;;8.20;1.98;;;20.40;65.40;;;;;;5011462;28;20534;-73
2021/07/06 11:41:26;;;;;;;8.95;1.98;;;20.60;64.70;;;;;;5010824;28;20116;-72
2021/07/06 11:43:52;;;;;;;9.52;1.90;;;21.10;63.30;;;;;;5009237;28;20030;-72
2021/07/06 11:46:22;;;;;;;8.98;2.10;;;21.60;60.90;;;;;;5016120;28;20037;-73
2021/07/06 11:48:48;;;;;;;9.48;2.00;;;22.10;60.50;;;;;;5011676;28;20026;-72
2021/07/06 11:51:16;;;;;;;8.98;2.10;;;22.20;57.40;;;;;;5018192;28;20041;-73
2021/07/06 11:53:56;;;;;;;9.35;2.38;;;22.30;57.70;;;;;;5013702;28;20034;-73
2021/07/06 11:56:26;;;;;;;8.05;1.77;;;22.60;57.10;;;;;;5026892;28;20073;-72
2021/07/06 11:58:52;;;;;;;10.02;2.00;;;22.50;56.90;;;;;;5020621;28;20405;-73
2021/07/06 12:01:17;;;;;;;8.55;1.80;;;22.60;55.50;;;;;;5019003;28;20348;-73
2021/07/06 12:03:43;;;;;;;7.63;1.75;;;22.00;56.00;;;;;;5010468;28;20030;-72
2021/07/06 12:06:14;;;;;;;7.93;1.58;;;21.70;56.20;;;;;;5009604;28;20052;-72
2021/07/06 12:08:45;;;;;;;8.00;1.58;;;21.40;58.00;;;;;;5016402;28;20037;-72
2021/07/06 12:11:18;;;;;;;10.63;1.83;;;21.10;58.50;;;;;;5008475;28;20057;-72
2021/07/06 12:13:43;;;;;;;7.03;1.30;;;20.90;59.90;;;;;;5008766;28;20120;-73
2021/07/06 12:16:20;;;;;;;6.57;1.60;;;20.90;60.00;;;;;;5008511;28;20454;-72
2021/07/06 12:19:07;;;;;;;8.80;1.70;;;20.90;60.50;;;;;;5008864;28;20032;-73
2021/07/06 12:21:53;;;;;;;8.88;1.60;;;20.80;63.30;;;;;;5008974;28;20065;-73
2021/07/06 12:24:23;;;;;;;6.68;1.67;;;21.00;61.30;;;;;;5015889;28;20053;-72
2021/07/06 12:26:51;;;;;;;6.13;1.38;;;21.10;58.40;;;;;;5013357;28;20043;-73
2021/07/06 12:29:30;;;;;;;7.43;1.30;;;21.40;58.80;;;;;;5010621;28;20045;-73
2021/07/06 12:31:56;;;;;;;7.78;1.58;;;21.90;58.00;;;;;;5015374;28;20493;-73
2021/07/06 12:34:40;;;;;;;6.38;1.48;;;22.10;56.10;;;;;;5007755;28;20034;-73
2021/07/06 12:37:08;;;;;;;7.55;1.70;;;22.00;56.50;;;;;;5015071;28;20046;-73
2021/07/06 12:39:38;;;;;;;11.52;1.50;;;21.70;56.90;;;;;;5010330;28;20037;-72
2021/07/06 12:42:05;;;;;;;6.35;1.45;;;21.40;57.50;;;;;;5009901;28;20037;-76
2021/07/06 12:44:43;;;;;;;5.38;1.40;;;21.20;57.80;;;;;;5009904;28;20030;-76
2021/07/06 12:47:31;;;;;;;8.50;1.50;;;21.10;60.20;;;;;;5021097;28;20042;-73
2021/07/06 12:49:58;;;;;;;5.38;1.20;;;20.30;66.90;;;;;;5019337;28;20069;-72